sensor_id;sensor_type;location;lat;lon;timestamp;pressure;altitude;pressure_sealevel;temperature;humidity
75172;BME280;63750;52.418;20.742;2023-04-01T00:00:08;98722.87;;;12.36;71.00
75172;BME280;63750;52.418;20.742;2023-04-01T00:02:37;98720.12;;;12.31;71.11
75172;BME280;63750;52.418;20.742;2023-04-01T00:05:08;98721.10;;;12.31;71.16
75172;BME280;63750;52.418;20.742;2023-04-01T00:07:36;98716.77;;;12.32;71.22
75172;BME280;63750;52.418;20.742;2023-04-01T00:10:07;98713.81;;;12.36;71.32
75172;BME280;63750;52.418;20.742;2023-04-01T00:12:36;98715.50;;;12.37;71.22
75172;BME280;63750;52.418;20.742;2023-04-01T00:15:07;98712.69;;;12.39;71.21
75172;BME280;63750;52.418;20.742;2023-04-01T00:17:36;98705.92;;;12.39;71.34
75172;BME280;63750;52.418;20.742;2023-04-01T00:20:07;98706.09;;;12.42;71.45
75172;BME280;63750;52.418;20.742;2023-04-01T00:22:35;98703.00;;;12.44;71.37
75172;BME280;63750;52.418;20.742;2023-04-01T00:25:05;98702.35;;;12.45;71.39
75172;BME280;63750;52.418;20.742;2023-04-01T00:27:33;98703.13;;;12.44;71.42
75172;BME280;63750;52.418;20.742;2023-04-01T00:30:02;98703.77;;;12.43;71.32
75172;BME280;63750;52.418;20.742;2023-04-01T00:32:31;98701.23;;;12.41;71.38
75172;BME280;63750;52.418;20.742;2023-04-01T00:34:59;98705.42;;;12.41;71.40
75172;BME280;63750;52.418;20.742;2023-04-01T00:37:28;98702.34;;;12.40;71.45
75172;BME280;63750;52.418;20.742;2023-04-01T00:39:57;98703.73;;;12.41;71.46
75172;BME280;63750;52.418;20.742;2023-04-01T00:42:26;98699.72;;;12.40;71.48
75172;BME280;63750;52.418;20.742;2023-04-01T00:44:55;98696.89;;;12.40;71.53
75172;BME280;63750;52.418;20.742;2023-04-01T00:47:25;98694.83;;;12.42;71.57
75172;BME280;63750;52.418;20.742;2023-04-01T00:49:55;98690.03;;;12.42;71.58
75172;BME280;63750;52.418;20.742;2023-04-01T00:52:27;98689.56;;;12.45;71.57
75172;BME280;63750;52.418;20.742;2023-04-01T00:54:57;98690.14;;;12.44;71.56
75172;BME280;63750;52.418;20.742;2023-04-01T00:57:32;98689.30;;;12.42;71.60
75172;BME280;63750;52.418;20.742;2023-04-01T01:00:03;98688.20;;;12.40;71.52
75172;BME280;63750;52.418;20.742;2023-04-01T01:02:33;98683.64;;;12.39;71.69
75172;BME280;63750;52.418;20.742;2023-04-01T01:05:03;98678.80;;;12.40;71.66
75172;BME280;63750;52.418;20.742;2023-04-01T01:07:39;98673.71;;;12.42;71.87
75172;BME280;63750;52.418;20.742;2023-04-01T01:10:15;98677.44;;;12.45;71.76
75172;BME280;63750;52.418;20.742;2023-04-01T01:12:48;98672.60;;;12.47;71.70
75172;BME280;63750;52.418;20.742;2023-04-01T01:15:23;98675.84;;;12.48;71.63
75172;BME280;63750;52.418;20.742;2023-04-01T01:17:58;98675.10;;;12.48;71.65
75172;BME280;63750;52.418;20.742;2023-04-01T01:23:57;98678.63;;;12.47;71.69
75172;BME280;63750;52.418;20.742;2023-04-01T01:26:48;98680.68;;;12.49;71.56
75172;BME280;63750;52.418;20.742;2023-04-01T01:29:38;98680.75;;;12.47;71.57
75172;BME280;63750;52.418;20.742;2023-04-01T01:32:14;98684.19;;;12.43;71.58
75172;BME280;63750;52.418;20.742;2023-04-01T01:34:51;98682.42;;;12.44;71.63
75172;BME280;63750;52.418;20.742;2023-04-01T01:37:25;98686.83;;;12.45;71.60
75172;BME280;63750;52.418;20.742;2023-04-01T01:39:58;98684.20;;;12.45;71.78
75172;BME280;63750;52.418;20.742;2023-04-01T01:42:30;98685.76;;;12.45;71.67
75172;BME280;63750;52.418;20.742;2023-04-01T01:45:01;98684.11;;;12.47;71.83
75172;BME280;63750;52.418;20.742;2023-04-01T01:47:32;98683.27;;;12.47;71.80
75172;BME280;63750;52.418;20.742;2023-04-01T01:50:02;98681.86;;;12.48;71.69
75172;BME280;63750;52.418;20.742;2023-04-01T01:52:33;98680.41;;;12.48;71.83
75172;BME280;63750;52.418;20.742;2023-04-01T01:55:01;98675.65;;;12.49;71.71
75172;BME280;63750;52.418;20.742;2023-04-01T01:57:31;98676.63;;;12.51;71.80
75172;BME280;63750;52.418;20.742;2023-04-01T02:00:04;98674.36;;;12.54;71.72
75172;BME280;63750;52.418;20.742;2023-04-01T02:02:34;98675.83;;;12.53;71.77
75172;BME280;63750;52.418;20.742;2023-04-01T02:05:04;98671.84;;;12.53;71.76
75172;BME280;63750;52.418;20.742;2023-04-01T02:07:35;98673.07;;;12.52;71.82
75172;BME280;63750;52.418;20.742;2023-04-01T02:10:07;98665.71;;;12.55;71.76
75172;BME280;63750;52.418;20.742;2023-04-01T02:12:36;98667.43;;;12.58;71.75
75172;BME280;63750;52.418;20.742;2023-04-01T02:15:08;98664.91;;;12.60;71.77
75172;BME280;63750;52.418;20.742;2023-04-01T02:17:40;98664.05;;;12.61;71.68
75172;BME280;63750;52.418;20.742;2023-04-01T02:20:14;98662.06;;;12.58;71.54
75172;BME280;63750;52.418;20.742;2023-04-01T02:22:46;98659.98;;;12.58;71.52
75172;BME280;63750;52.418;20.742;2023-04-01T02:25:19;98658.11;;;12.57;71.70
75172;BME280;63750;52.418;20.742;2023-04-01T02:27:48;98656.23;;;12.57;71.48
75172;BME280;63750;52.418;20.742;2023-04-01T02:30:17;98652.22;;;12.58;71.52
75172;BME280;63750;52.418;20.742;2023-04-01T02:32:48;98651.52;;;12.57;71.51
75172;BME280;63750;52.418;20.742;2023-04-01T02:35:17;98651.32;;;12.57;71.52
75172;BME280;63750;52.418;20.742;2023-04-01T02:37:48;98648.04;;;12.57;71.57
75172;BME280;63750;52.418;20.742;2023-04-01T02:40:18;98646.42;;;12.56;71.57
75172;BME280;63750;52.418;20.742;2023-04-01T02:42:47;98647.81;;;12.56;71.57
75172;BME280;63750;52.418;20.742;2023-04-01T02:45:16;98651.02;;;12.56;71.62
75172;BME280;63750;52.418;20.742;2023-04-01T02:47:44;98648.57;;;12.54;71.68
75172;BME280;63750;52.418;20.742;2023-04-01T02:50:13;98648.08;;;12.54;71.59
75172;BME280;63750;52.418;20.742;2023-04-01T02:52:41;98649.47;;;12.50;71.50
75172;BME280;63750;52.418;20.742;2023-04-01T02:55:10;98653.55;;;12.46;71.70
75172;BME280;63750;52.418;20.742;2023-04-01T02:57:39;98655.27;;;12.42;71.72
75172;BME280;63750;52.418;20.742;2023-04-01T03:00:09;98655.20;;;12.42;71.79
75172;BME280;63750;52.418;20.742;2023-04-01T03:02:39;98656.24;;;12.41;71.87
75172;BME280;63750;52.418;20.742;2023-04-01T03:05:08;98661.39;;;12.40;71.90
75172;BME280;63750;52.418;20.742;2023-04-01T03:07:37;98662.35;;;12.38;72.01
75172;BME280;63750;52.418;20.742;2023-04-01T03:10:07;98665.69;;;12.40;72.03
75172;BME280;63750;52.418;20.742;2023-04-01T03:12:36;98662.73;;;12.42;72.01
75172;BME280;63750;52.418;20.742;2023-04-01T03:15:06;98664.48;;;12.45;72.16
75172;BME280;63750;52.418;20.742;2023-04-01T03:17:34;98667.90;;;12.49;72.20
75172;BME280;63750;52.418;20.742;2023-04-01T03:20:04;98665.67;;;12.51;72.11
75172;BME280;63750;52.418;20.742;2023-04-01T03:22:33;98672.88;;;12.50;71.98
75172;BME280;63750;52.418;20.742;2023-04-01T03:25:02;98672.09;;;12.49;71.96
75172;BME280;63750;52.418;20.742;2023-04-01T03:27:30;98670.31;;;12.48;71.91
75172;BME280;63750;52.418;20.742;2023-04-01T03:29:59;98670.02;;;12.47;72.02
75172;BME280;63750;52.418;20.742;2023-04-01T03:32:28;98668.79;;;12.47;71.88
75172;BME280;63750;52.418;20.742;2023-04-01T03:34:56;98672.16;;;12.48;71.94
75172;BME280;63750;52.418;20.742;2023-04-01T03:37:25;98668.46;;;12.48;71.86
75172;BME280;63750;52.418;20.742;2023-04-01T03:39:53;98674.33;;;12.46;71.95
75172;BME280;63750;52.418;20.742;2023-04-01T03:42:22;98674.57;;;12.45;71.94
75172;BME280;63750;52.418;20.742;2023-04-01T03:44:50;98676.70;;;12.47;72.01
75172;BME280;63750;52.418;20.742;2023-04-01T03:47:19;98678.88;;;12.48;72.01
75172;BME280;63750;52.418;20.742;2023-04-01T03:49:47;98675.02;;;12.48;72.04
75172;BME280;63750;52.418;20.742;2023-04-01T03:52:16;98675.25;;;12.50;72.00
75172;BME280;63750;52.418;20.742;2023-04-01T03:54:44;98675.63;;;12.51;71.92
75172;BME280;63750;52.418;20.742;2023-04-01T03:57:13;98679.60;;;12.50;72.03
75172;BME280;63750;52.418;20.742;2023-04-01T03:59:41;98683.33;;;12.50;72.13
75172;BME280;63750;52.418;20.742;2023-04-01T04:02:10;98681.98;;;12.51;72.03
75172;BME280;63750;52.418;20.742;2023-04-01T04:04:38;98690.71;;;12.54;71.98
75172;BME280;63750;52.418;20.742;2023-04-01T04:07:07;98692.07;;;12.54;71.96
75172;BME280;63750;52.418;20.742;2023-04-01T04:09:35;98693.27;;;12.56;72.01
75172;BME280;63750;52.418;20.742;2023-04-01T04:12:04;98695.13;;;12.57;71.96
75172;BME280;63750;52.418;20.742;2023-04-01T04:14:34;98699.38;;;12.58;71.90
75172;BME280;63750;52.418;20.742;2023-04-01T04:17:02;98703.88;;;12.58;71.86
75172;BME280;63750;52.418;20.742;2023-04-01T04:19:34;98708.01;;;12.50;71.84
75172;BME280;63750;52.418;20.742;2023-04-01T04:22:02;98708.68;;;12.39;71.92
75172;BME280;63750;52.418;20.742;2023-04-01T04:24:31;98709.83;;;12.35;71.95
75172;BME280;63750;52.418;20.742;2023-04-01T04:26:59;98708.52;;;12.32;71.90
75172;BME280;63750;52.418;20.742;2023-04-01T04:29:28;98712.17;;;12.25;71.75
75172;BME280;63750;52.418;20.742;2023-04-01T04:31:56;98708.77;;;12.21;71.88
75172;BME280;63750;52.418;20.742;2023-04-01T04:34:25;98715.20;;;12.17;71.97
75172;BME280;63750;52.418;20.742;2023-04-01T04:36:54;98713.54;;;12.11;72.16
75172;BME280;63750;52.418;20.742;2023-04-01T04:39:22;98716.20;;;12.08;72.23
75172;BME280;63750;52.418;20.742;2023-04-01T04:41:51;98713.59;;;12.06;72.23
75172;BME280;63750;52.418;20.742;2023-04-01T04:44:19;98717.52;;;12.04;72.35
75172;BME280;63750;52.418;20.742;2023-04-01T04:46:48;98716.65;;;12.02;72.57
75172;BME280;63750;52.418;20.742;2023-04-01T04:49:16;98721.45;;;12.00;72.41
75172;BME280;63750;52.418;20.742;2023-04-01T04:51:45;98721.85;;;11.97;72.49
75172;BME280;63750;52.418;20.742;2023-04-01T04:54:13;98722.40;;;11.95;72.30
75172;BME280;63750;52.418;20.742;2023-04-01T04:56:42;98721.79;;;11.93;72.23
75172;BME280;63750;52.418;20.742;2023-04-01T04:59:10;98721.11;;;11.91;72.41
75172;BME280;63750;52.418;20.742;2023-04-01T05:01:39;98724.11;;;11.92;72.47
75172;BME280;63750;52.418;20.742;2023-04-01T05:04:08;98727.96;;;11.92;72.43
75172;BME280;63750;52.418;20.742;2023-04-01T05:06:36;98727.71;;;11.90;72.35
75172;BME280;63750;52.418;20.742;2023-04-01T05:09:05;98729.42;;;11.88;72.52
75172;BME280;63750;52.418;20.742;2023-04-01T05:11:34;98728.17;;;11.85;72.58
75172;BME280;63750;52.418;20.742;2023-04-01T05:14:02;98730.85;;;11.83;72.46
75172;BME280;63750;52.418;20.742;2023-04-01T05:16:31;98731.98;;;11.83;72.35
75172;BME280;63750;52.418;20.742;2023-04-01T05:18:59;98735.86;;;11.81;72.62
75172;BME280;63750;52.418;20.742;2023-04-01T05:21:28;98738.77;;;11.82;72.38
75172;BME280;63750;52.418;20.742;2023-04-01T05:23:56;98742.95;;;11.81;72.38
75172;BME280;63750;52.418;20.742;2023-04-01T05:26:25;98741.24;;;11.78;72.67
75172;BME280;63750;52.418;20.742;2023-04-01T05:28:54;98743.15;;;11.75;72.53
75172;BME280;63750;52.418;20.742;2023-04-01T05:31:22;98744.59;;;11.72;72.60
75172;BME280;63750;52.418;20.742;2023-04-01T05:33:51;98745.86;;;11.72;72.69
75172;BME280;63750;52.418;20.742;2023-04-01T05:36:19;98745.95;;;11.70;72.43
75172;BME280;63750;52.418;20.742;2023-04-01T05:38:48;98743.88;;;11.71;72.49
75172;BME280;63750;52.418;20.742;2023-04-01T05:41:16;98744.98;;;11.69;72.44
75172;BME280;63750;52.418;20.742;2023-04-01T05:43:48;98743.38;;;11.70;72.18
75172;BME280;63750;52.418;20.742;2023-04-01T05:46:18;98739.92;;;11.70;72.45
75172;BME280;63750;52.418;20.742;2023-04-01T05:48:47;98741.06;;;11.73;72.48
75172;BME280;63750;52.418;20.742;2023-04-01T05:51:15;98739.16;;;11.78;72.44
75172;BME280;63750;52.418;20.742;2023-04-01T05:53:44;98741.23;;;11.84;72.45
75172;BME280;63750;52.418;20.742;2023-04-01T05:56:13;98735.86;;;11.91;72.55
75172;BME280;63750;52.418;20.742;2023-04-01T05:58:41;98739.95;;;12.00;72.41
75172;BME280;63750;52.418;20.742;2023-04-01T06:01:11;98739.56;;;12.09;72.27
75172;BME280;63750;52.418;20.742;2023-04-01T06:03:39;98737.84;;;12.12;72.34
75172;BME280;63750;52.418;20.742;2023-04-01T06:06:15;98741.74;;;12.13;72.03
75172;BME280;63750;52.418;20.742;2023-04-01T06:08:44;98741.67;;;12.14;72.00
75172;BME280;63750;52.418;20.742;2023-04-01T06:11:25;98740.76;;;12.15;72.09
75172;BME280;63750;52.418;20.742;2023-04-01T06:14:11;98738.85;;;12.18;71.95
75172;BME280;63750;52.418;20.742;2023-04-01T06:16:54;98743.28;;;12.22;71.92
75172;BME280;63750;52.418;20.742;2023-04-01T06:19:34;98749.82;;;12.27;72.00
75172;BME280;63750;52.418;20.742;2023-04-01T06:22:27;98748.15;;;12.27;71.85
75172;BME280;63750;52.418;20.742;2023-04-01T06:25:26;98752.61;;;12.27;71.59
75172;BME280;63750;52.418;20.742;2023-04-01T06:31:12;98754.17;;;12.27;71.83
75172;BME280;63750;52.418;20.742;2023-04-01T06:33:58;98758.98;;;12.39;71.91
75172;BME280;63750;52.418;20.742;2023-04-01T06:36:45;98760.66;;;12.43;71.46
75172;BME280;63750;52.418;20.742;2023-04-01T06:42:40;98766.48;;;12.46;71.18
75172;BME280;63750;52.418;20.742;2023-04-01T06:45:26;98763.00;;;12.48;71.18
75172;BME280;63750;52.418;20.742;2023-04-01T06:48:12;98760.29;;;12.46;70.98
75172;BME280;63750;52.418;20.742;2023-04-01T06:50:51;98762.16;;;12.51;70.98
75172;BME280;63750;52.418;20.742;2023-04-01T06:53:31;98765.55;;;12.55;70.77
75172;BME280;63750;52.418;20.742;2023-04-01T06:56:05;98763.27;;;12.53;70.71
75172;BME280;63750;52.418;20.742;2023-04-01T06:58:39;98764.42;;;12.54;70.64
75172;BME280;63750;52.418;20.742;2023-04-01T07:01:12;98770.32;;;12.53;70.50
75172;BME280;63750;52.418;20.742;2023-04-01T07:03:44;98767.66;;;12.51;70.54
75172;BME280;63750;52.418;20.742;2023-04-01T07:06:19;98764.63;;;12.55;70.40
75172;BME280;63750;52.418;20.742;2023-04-01T07:08:54;98769.70;;;12.53;70.58
75172;BME280;63750;52.418;20.742;2023-04-01T07:11:26;98774.84;;;12.57;70.24
75172;BME280;63750;52.418;20.742;2023-04-01T07:14:01;98773.80;;;12.60;70.44
75172;BME280;63750;52.418;20.742;2023-04-01T07:16:32;98775.88;;;12.67;70.47
75172;BME280;63750;52.418;20.742;2023-04-01T07:19:08;98768.91;;;12.79;70.40
75172;BME280;63750;52.418;20.742;2023-04-01T07:21:42;98773.36;;;12.89;70.40
75172;BME280;63750;52.418;20.742;2023-04-01T07:24:17;98773.08;;;12.92;70.58
75172;BME280;63750;52.418;20.742;2023-04-01T07:26:52;98774.59;;;12.89;70.12
75172;BME280;63750;52.418;20.742;2023-04-01T07:29:22;98778.31;;;12.88;70.07
75172;BME280;63750;52.418;20.742;2023-04-01T07:32:16;98776.77;;;12.86;69.86
75172;BME280;63750;52.418;20.742;2023-04-01T07:34:54;98772.23;;;12.81;70.20
75172;BME280;63750;52.418;20.742;2023-04-01T07:37:30;98776.95;;;12.75;69.93
75172;BME280;63750;52.418;20.742;2023-04-01T07:40:10;98771.15;;;12.73;69.95
75172;BME280;63750;52.418;20.742;2023-04-01T07:42:53;98774.04;;;12.75;70.06
75172;BME280;63750;52.418;20.742;2023-04-01T07:45:29;98772.34;;;12.79;70.05
75172;BME280;63750;52.418;20.742;2023-04-01T07:48:21;98772.48;;;12.85;70.26
75172;BME280;63750;52.418;20.742;2023-04-01T07:50:58;98770.36;;;12.89;70.13
75172;BME280;63750;52.418;20.742;2023-04-01T07:53:33;98768.08;;;12.91;70.21
75172;BME280;63750;52.418;20.742;2023-04-01T07:56:08;98770.25;;;12.91;70.08
75172;BME280;63750;52.418;20.742;2023-04-01T07:58:45;98777.09;;;12.89;69.99
75172;BME280;63750;52.418;20.742;2023-04-01T08:01:23;98780.80;;;12.86;69.61
75172;BME280;63750;52.418;20.742;2023-04-01T08:04:08;98782.08;;;12.83;69.87
75172;BME280;63750;52.418;20.742;2023-04-01T08:06:43;98779.04;;;12.80;69.69
75172;BME280;63750;52.418;20.742;2023-04-01T08:09:20;98782.48;;;12.80;69.81
75172;BME280;63750;52.418;20.742;2023-04-01T08:12:01;98782.50;;;12.77;69.77
75172;BME280;63750;52.418;20.742;2023-04-01T08:14:39;98786.91;;;12.75;69.86
75172;BME280;63750;52.418;20.742;2023-04-01T08:17:15;98788.12;;;12.72;69.68
75172;BME280;63750;52.418;20.742;2023-04-01T08:19:59;98789.86;;;12.71;69.62
75172;BME280;63750;52.418;20.742;2023-04-01T08:22:35;98793.41;;;12.66;69.65
75172;BME280;63750;52.418;20.742;2023-04-01T08:25:10;98793.15;;;12.68;69.51
75172;BME280;63750;52.418;20.742;2023-04-01T08:27:45;98797.42;;;12.71;69.76
75172;BME280;63750;52.418;20.742;2023-04-01T08:30:21;98801.08;;;12.69;69.87
75172;BME280;63750;52.418;20.742;2023-04-01T08:32:54;98799.50;;;12.64;69.73
75172;BME280;63750;52.418;20.742;2023-04-01T08:35:29;98796.80;;;12.61;69.70
75172;BME280;63750;52.418;20.742;2023-04-01T08:38:05;98802.11;;;12.61;69.55
75172;BME280;63750;52.418;20.742;2023-04-01T08:40:55;98801.81;;;12.60;69.67
75172;BME280;63750;52.418;20.742;2023-04-01T08:43:38;98802.20;;;12.56;69.91
75172;BME280;63750;52.418;20.742;2023-04-01T08:46:23;98805.68;;;12.52;69.92
75172;BME280;63750;52.418;20.742;2023-04-01T08:49:05;98802.42;;;12.47;69.89
75172;BME280;63750;52.418;20.742;2023-04-01T08:57:56;98809.92;;;12.61;70.43
75172;BME280;63750;52.418;20.742;2023-04-01T09:00:32;98805.77;;;12.60;70.10
75172;BME280;63750;52.418;20.742;2023-04-01T09:06:26;98811.32;;;12.57;69.94
75172;BME280;63750;52.418;20.742;2023-04-01T09:09:17;98813.56;;;12.53;69.96
75172;BME280;63750;52.418;20.742;2023-04-01T09:12:14;98810.25;;;12.51;69.97
75172;BME280;63750;52.418;20.742;2023-04-01T09:18:04;98815.77;;;12.64;70.35
75172;BME280;63750;52.418;20.742;2023-04-01T09:20:49;98820.19;;;12.72;70.46
75172;BME280;63750;52.418;20.742;2023-04-01T09:23:46;98818.27;;;12.69;70.11
75172;BME280;63750;52.418;20.742;2023-04-01T09:26:37;98818.54;;;12.69;69.97
75172;BME280;63750;52.418;20.742;2023-04-01T09:29:24;98822.82;;;12.67;69.65
75172;BME280;63750;52.418;20.742;2023-04-01T09:32:10;98823.23;;;12.70;69.80
75172;BME280;63750;52.418;20.742;2023-04-01T09:34:53;98821.89;;;12.70;69.96
75172;BME280;63750;52.418;20.742;2023-04-01T09:37:34;98826.96;;;12.73;69.82
75172;BME280;63750;52.418;20.742;2023-04-01T09:40:16;98827.58;;;12.73;69.71
75172;BME280;63750;52.418;20.742;2023-04-01T09:42:48;98826.05;;;12.70;69.79
75172;BME280;63750;52.418;20.742;2023-04-01T09:45:32;98829.84;;;12.74;70.01
75172;BME280;63750;52.418;20.742;2023-04-01T09:48:16;98831.38;;;12.76;69.54
75172;BME280;63750;52.418;20.742;2023-04-01T09:50:52;98832.95;;;12.77;69.89
75172;BME280;63750;52.418;20.742;2023-04-01T09:53:41;98832.93;;;12.83;69.82
75172;BME280;63750;52.418;20.742;2023-04-01T09:56:38;98837.70;;;12.88;69.76
75172;BME280;63750;52.418;20.742;2023-04-01T10:05:22;98839.69;;;12.89;70.03
75172;BME280;63750;52.418;20.742;2023-04-01T10:08:31;98838.20;;;12.85;69.70
75172;BME280;63750;52.418;20.742;2023-04-01T10:14:35;98838.70;;;12.91;69.62
75172;BME280;63750;52.418;20.742;2023-04-01T10:20:37;98841.15;;;13.00;69.86
75172;BME280;63750;52.418;20.742;2023-04-01T10:23:42;98839.80;;;12.97;69.78
75172;BME280;63750;52.418;20.742;2023-04-01T10:26:34;98843.45;;;13.00;69.95
75172;BME280;63750;52.418;20.742;2023-04-01T10:29:44;98842.80;;;13.06;69.85
75172;BME280;63750;52.418;20.742;2023-04-01T10:35:37;98843.61;;;13.09;69.79
75172;BME280;63750;52.418;20.742;2023-04-01T10:47:39;98842.02;;;13.18;69.99
75172;BME280;63750;52.418;20.742;2023-04-01T10:50:36;98839.90;;;13.22;69.72
75172;BME280;63750;52.418;20.742;2023-04-01T10:53:30;98839.89;;;13.29;69.66
75172;BME280;63750;52.418;20.742;2023-04-01T10:56:32;98840.65;;;13.30;69.60
75172;BME280;63750;52.418;20.742;2023-04-01T10:59:33;98844.85;;;13.32;69.47
75172;BME280;63750;52.418;20.742;2023-04-01T11:05:57;98853.23;;;13.36;69.11
75172;BME280;63750;52.418;20.742;2023-04-01T11:21:08;98859.85;;;13.54;69.23
75172;BME280;63750;52.418;20.742;2023-04-01T11:23:59;98861.16;;;13.57;69.09
75172;BME280;63750;52.418;20.742;2023-04-01T11:26:45;98861.51;;;13.65;68.89
75172;BME280;63750;52.418;20.742;2023-04-01T11:29:43;98865.10;;;13.68;68.97
75172;BME280;63750;52.418;20.742;2023-04-01T11:32:23;98864.33;;;13.69;68.69
75172;BME280;63750;52.418;20.742;2023-04-01T11:35:06;98865.66;;;13.75;68.73
75172;BME280;63750;52.418;20.742;2023-04-01T11:37:49;98861.65;;;13.76;68.55
75172;BME280;63750;52.418;20.742;2023-04-01T11:40:25;98865.55;;;13.83;68.51
75172;BME280;63750;52.418;20.742;2023-04-01T11:43:01;98867.56;;;13.90;68.48
75172;BME280;63750;52.418;20.742;2023-04-01T11:45:38;98866.80;;;13.87;68.22
75172;BME280;63750;52.418;20.742;2023-04-01T11:48:23;98871.50;;;13.88;67.87
75172;BME280;63750;52.418;20.742;2023-04-01T11:51:08;98872.73;;;13.88;67.69
75172;BME280;63750;52.418;20.742;2023-04-01T11:53:49;98872.90;;;13.88;67.60
75172;BME280;63750;52.418;20.742;2023-04-01T11:56:34;98875.48;;;13.88;67.30
75172;BME280;63750;52.418;20.742;2023-04-01T11:59:22;98878.10;;;13.87;67.14
75172;BME280;63750;52.418;20.742;2023-04-01T12:02:01;98881.63;;;13.90;67.21
75172;BME280;63750;52.418;20.742;2023-04-01T12:05:01;98882.28;;;13.97;67.28
75172;BME280;63750;52.418;20.742;2023-04-01T12:07:55;98884.90;;;14.06;67.69
75172;BME280;63750;52.418;20.742;2023-04-01T12:10:36;98886.46;;;14.13;67.70
75172;BME280;63750;52.418;20.742;2023-04-01T12:13:11;98890.23;;;14.11;67.48
75172;BME280;63750;52.418;20.742;2023-04-01T12:15:55;98891.07;;;14.06;67.34
75172;BME280;63750;52.418;20.742;2023-04-01T12:18:31;98893.58;;;14.02;67.54
75172;BME280;63750;52.418;20.742;2023-04-01T12:21:08;98894.75;;;13.98;67.33
75172;BME280;63750;52.418;20.742;2023-04-01T12:30:09;98898.75;;;13.95;67.57
75172;BME280;63750;52.418;20.742;2023-04-01T12:32:46;98899.40;;;13.95;67.50
75172;BME280;63750;52.418;20.742;2023-04-01T12:35:23;98902.08;;;13.95;67.29
75172;BME280;63750;52.418;20.742;2023-04-01T12:38:06;98900.96;;;13.94;67.21
75172;BME280;63750;52.418;20.742;2023-04-01T12:40:48;98907.13;;;13.93;67.35
75172;BME280;63750;52.418;20.742;2023-04-01T12:43:34;98908.02;;;13.92;67.41
75172;BME280;63750;52.418;20.742;2023-04-01T12:46:18;98913.98;;;14.05;67.96
75172;BME280;63750;52.418;20.742;2023-04-01T12:52:04;98915.11;;;14.56;69.28
75172;BME280;63750;52.418;20.742;2023-04-01T13:00:58;98926.12;;;15.22;68.93
75172;BME280;63750;52.418;20.742;2023-04-01T13:03:47;98933.30;;;15.35;68.62
75172;BME280;63750;52.418;20.742;2023-04-01T13:06:31;98935.66;;;15.52;68.23
75172;BME280;63750;52.418;20.742;2023-04-01T13:09:12;98934.84;;;15.66;67.73
75172;BME280;63750;52.418;20.742;2023-04-01T13:11:57;98938.56;;;15.73;67.24
75172;BME280;63750;52.418;20.742;2023-04-01T13:14:59;98943.78;;;15.93;67.64
75172;BME280;63750;52.418;20.742;2023-04-01T13:17:38;98942.27;;;15.92;66.89
75172;BME280;63750;52.418;20.742;2023-04-01T13:20:19;98945.61;;;15.91;66.76
75172;BME280;63750;52.418;20.742;2023-04-01T13:23:00;98949.65;;;15.89;66.39
75172;BME280;63750;52.418;20.742;2023-04-01T13:25:38;98952.98;;;15.79;65.78
75172;BME280;63750;52.418;20.742;2023-04-01T13:28:14;98949.43;;;15.57;65.13
75172;BME280;63750;52.418;20.742;2023-04-01T13:30:49;98947.56;;;15.38;64.86
75172;BME280;63750;52.418;20.742;2023-04-01T13:33:27;98952.12;;;15.19;64.89
75172;BME280;63750;52.418;20.742;2023-04-01T13:36:10;98951.70;;;15.04;64.77
75172;BME280;63750;52.418;20.742;2023-04-01T13:39:08;98955.52;;;14.91;64.95
75172;BME280;63750;52.418;20.742;2023-04-01T13:41:56;98959.04;;;14.79;65.27
75172;BME280;63750;52.418;20.742;2023-04-01T13:44:34;98967.84;;;14.70;65.32
75172;BME280;63750;52.418;20.742;2023-04-01T13:47:20;98969.40;;;14.62;65.35
75172;BME280;63750;52.418;20.742;2023-04-01T13:53:06;98982.80;;;14.49;65.51
75172;BME280;63750;52.418;20.742;2023-04-01T13:55:49;98984.94;;;14.42;65.65
75172;BME280;63750;52.418;20.742;2023-04-01T13:58:37;98990.07;;;14.37;65.68
75172;BME280;63750;52.418;20.742;2023-04-01T14:01:12;98997.22;;;14.33;65.95
75172;BME280;63750;52.418;20.742;2023-04-01T14:06:49;98999.13;;;14.25;65.82
75172;BME280;63750;52.418;20.742;2023-04-01T14:09:44;99002.92;;;14.20;65.63
75172;BME280;63750;52.418;20.742;2023-04-01T14:12:25;99007.27;;;14.11;65.98
75172;BME280;63750;52.418;20.742;2023-04-01T14:17:59;99011.77;;;13.98;65.91
75172;BME280;63750;52.418;20.742;2023-04-01T14:20:39;99010.89;;;13.94;66.09
75172;BME280;63750;52.418;20.742;2023-04-01T14:26:20;99016.27;;;13.82;66.22
75172;BME280;63750;52.418;20.742;2023-04-01T14:28:58;99014.83;;;13.83;66.37
75172;BME280;63750;52.418;20.742;2023-04-01T14:31:42;99019.81;;;13.84;66.42
75172;BME280;63750;52.418;20.742;2023-04-01T14:34:28;99017.30;;;13.86;66.40
75172;BME280;63750;52.418;20.742;2023-04-01T14:37:07;99020.38;;;13.86;66.48
75172;BME280;63750;52.418;20.742;2023-04-01T14:40:14;99020.68;;;13.88;66.38
75172;BME280;63750;52.418;20.742;2023-04-01T14:43:08;99028.02;;;13.90;66.18
75172;BME280;63750;52.418;20.742;2023-04-01T14:46:06;99023.91;;;13.91;66.01
75172;BME280;63750;52.418;20.742;2023-04-01T14:48:39;99031.31;;;13.94;66.24
75172;BME280;63750;52.418;20.742;2023-04-01T14:51:20;99034.58;;;13.98;65.97
75172;BME280;63750;52.418;20.742;2023-04-01T14:54:02;99034.65;;;13.97;66.15
75172;BME280;63750;52.418;20.742;2023-04-01T14:56:40;99037.58;;;13.98;66.04
75172;BME280;63750;52.418;20.742;2023-04-01T14:59:13;99046.69;;;14.01;66.14
75172;BME280;63750;52.418;20.742;2023-04-01T15:01:50;99046.64;;;14.00;66.05
75172;BME280;63750;52.418;20.742;2023-04-01T15:04:36;99048.56;;;13.99;65.86
75172;BME280;63750;52.418;20.742;2023-04-01T15:07:21;99053.59;;;13.97;65.72
75172;BME280;63750;52.418;20.742;2023-04-01T15:10:03;99062.77;;;13.93;65.84